Guide Rock, Nebraska
Current Conditions -  °F | °C
As of 6:53 PM on Tuesday 25 Nov 2014 (Local Time) from KHSI Reporting Station
Broken Clouds Broken Clouds  
Wind Chill: 39°   Ceiling: 12000
Heat Index: 43°   Visibility: 10mi
Dew Point: 19°   Wind: 7mph
Humidity: 38%   Direction: 190°S
Pressure: 29.83"   Gusts: NA
Location:  40.07°N, 98.33°W
Report Text: KHSI 260053Z AUTO 19006KT 10SM BKN120 06/M07 A2983 RMK AO2 SLP117 T00611072
Loading
Personal Weather Stations






























Interactive Weather Map New forecast layout! Learn more

10-Day Weather Forecast

Advertisements
Track Severe Weather on mobile